createdAt,value
2022-12-07T00:01:45.267Z,1.10
2022-12-07T00:04:14.323Z,0.93
2022-12-07T00:06:43.456Z,1.20
2022-12-07T00:09:17.638Z,0.90
2022-12-07T00:11:45.282Z,1.08
2022-12-07T00:14:14.321Z,1.15
2022-12-07T00:16:40.965Z,1.30
2022-12-07T00:19:10.344Z,0.90
2022-12-07T00:21:37.285Z,1.10
2022-12-07T00:24:05.615Z,1.00
2022-12-07T00:26:34.927Z,1.10
2022-12-07T00:29:04.944Z,0.98
2022-12-07T00:31:36.078Z,0.93
2022-12-07T00:34:02.636Z,0.93
2022-12-07T00:36:29.303Z,0.90
2022-12-07T00:38:58.265Z,1.23
2022-12-07T00:41:26.085Z,1.20
2022-12-07T00:43:52.903Z,0.95
2022-12-07T00:46:20.575Z,0.80
2022-12-07T00:48:48.089Z,1.00
2022-12-07T00:51:19.853Z,1.00
2022-12-07T00:53:46.773Z,1.15
2022-12-07T00:56:15.615Z,1.13
2022-12-07T00:58:42.220Z,0.90
2022-12-07T01:01:10.637Z,1.08
2022-12-07T01:03:38.074Z,1.25
2022-12-07T01:06:05.019Z,1.00
2022-12-07T01:08:31.886Z,1.27
2022-12-07T01:11:00.399Z,1.10
2022-12-07T01:13:26.879Z,0.60
2022-12-07T01:15:58.763Z,0.95
2022-12-07T01:18:25.195Z,0.93
2022-12-07T01:21:21.907Z,1.10
2022-12-07T01:23:49.048Z,0.73
2022-12-07T01:26:18.751Z,1.10
2022-12-07T01:28:46.394Z,1.10
2022-12-07T01:31:16.345Z,0.95
2022-12-07T01:33:47.965Z,1.00
2022-12-07T01:36:18.002Z,0.90
2022-12-07T01:38:46.228Z,0.93
2022-12-07T01:41:13.432Z,1.02
2022-12-07T01:44:20.046Z,0.80
2022-12-07T01:47:01.052Z,1.13
2022-12-07T01:49:33.330Z,0.70
2022-12-07T01:52:25.626Z,0.90
2022-12-07T01:54:56.604Z,0.70
2022-12-07T01:57:23.618Z,0.68
2022-12-07T01:59:53.025Z,0.77
2022-12-07T02:02:24.616Z,0.60
2022-12-07T02:04:54.211Z,0.90
2022-12-07T02:07:22.787Z,0.70
2022-12-07T02:09:49.214Z,0.80
2022-12-07T02:12:16.013Z,1.08
2022-12-07T02:14:42.737Z,0.77
2022-12-07T02:17:15.885Z,0.80
2022-12-07T02:20:13.010Z,0.88
2022-12-07T02:23:13.678Z,0.60
2022-12-07T02:25:55.175Z,0.73
2022-12-07T02:28:36.032Z,0.70
2022-12-07T02:31:19.177Z,0.57
2022-12-07T02:33:52.824Z,0.65
2022-12-07T02:36:33.614Z,0.70
2022-12-07T02:39:12.426Z,0.80
2022-12-07T02:41:44.231Z,0.73
2022-12-07T02:44:15.256Z,0.70
2022-12-07T02:46:45.796Z,0.70
2022-12-07T02:49:38.469Z,0.75
2022-12-07T02:52:05.590Z,0.82
2022-12-07T02:54:32.019Z,0.60
2022-12-07T02:56:58.885Z,0.50
2022-12-07T02:59:30.634Z,0.60
2022-12-07T03:02:18.741Z,0.50
2022-12-07T03:05:00.437Z,0.57
2022-12-07T03:07:38.992Z,0.60
2022-12-07T03:10:12.318Z,0.80
2022-12-07T03:13:03.467Z,0.80
2022-12-07T03:15:42.657Z,0.70
2022-12-07T03:18:12.932Z,0.60
2022-12-07T03:20:41.990Z,0.53
2022-12-07T03:23:11.080Z,0.50
2022-12-07T03:25:46.317Z,0.55
2022-12-07T03:28:16.720Z,0.50
2022-12-07T03:30:50.112Z,0.50
2022-12-07T03:33:33.060Z,0.50
2022-12-07T03:36:08.593Z,0.55
2022-12-07T03:38:43.662Z,0.45
2022-12-07T03:41:15.825Z,0.50
2022-12-07T03:43:42.794Z,0.52
2022-12-07T03:46:18.575Z,0.50
2022-12-07T03:49:23.674Z,0.50
2022-12-07T03:52:07.119Z,0.43
2022-12-07T03:54:50.482Z,0.50
2022-12-07T03:57:18.451Z,0.43
2022-12-07T03:59:48.513Z,0.60
2022-12-07T04:02:15.839Z,0.40
2022-12-07T04:04:43.785Z,0.60
2022-12-07T04:07:10.578Z,0.40
2022-12-07T04:09:36.957Z,0.63
2022-12-07T04:12:03.504Z,0.50
2022-12-07T04:14:29.973Z,0.63
2022-12-07T04:16:58.695Z,0.50
2022-12-07T04:19:27.280Z,0.60
2022-12-07T04:21:54.029Z,0.52
2022-12-07T04:24:20.953Z,0.40
2022-12-07T04:26:47.947Z,0.45
2022-12-07T04:29:15.547Z,0.60
2022-12-07T04:31:42.856Z,0.38
2022-12-07T04:34:09.872Z,0.50
2022-12-07T04:36:36.578Z,0.80
2022-12-07T04:39:04.102Z,0.70
2022-12-07T04:41:30.765Z,0.30
2022-12-07T04:43:59.581Z,0.35
2022-12-07T04:46:27.480Z,0.40
2022-12-07T04:48:54.879Z,0.30
2022-12-07T04:51:27.412Z,0.50
2022-12-07T04:53:54.223Z,0.40
2022-12-07T04:56:20.805Z,0.40
2022-12-07T04:58:48.459Z,0.50
2022-12-07T05:01:17.227Z,0.60
2022-12-07T05:03:44.071Z,0.93
2022-12-07T05:06:13.542Z,0.60
2022-12-07T05:08:40.883Z,0.50
2022-12-07T05:11:08.330Z,0.95
2022-12-07T05:13:35.667Z,0.40
2022-12-07T05:16:02.248Z,0.47
2022-12-07T05:18:28.697Z,0.30
2022-12-07T05:20:55.207Z,0.40
2022-12-07T05:23:21.653Z,0.32
2022-12-07T05:25:48.284Z,0.60
2022-12-07T05:28:14.702Z,0.63
2022-12-07T05:30:41.062Z,0.40
2022-12-07T05:33:10.172Z,0.40
2022-12-07T05:35:38.852Z,0.55
2022-12-07T05:38:05.269Z,0.40
2022-12-07T05:40:31.695Z,0.40
2022-12-07T05:43:04.014Z,0.55
2022-12-07T05:45:33.201Z,0.30
2022-12-07T05:47:59.696Z,0.57
2022-12-07T05:50:26.257Z,0.40
2022-12-07T05:52:52.693Z,0.30
2022-12-07T05:55:20.924Z,0.35
2022-12-07T05:58:08.354Z,0.63
2022-12-07T06:00:34.737Z,0.70
2022-12-07T06:03:01.384Z,0.23
2022-12-07T06:05:28.017Z,0.32
2022-12-07T06:07:54.454Z,0.32
2022-12-07T06:10:20.973Z,0.32
2022-12-07T06:12:47.512Z,0.30
2022-12-07T06:15:14.448Z,0.70
2022-12-07T06:17:40.857Z,0.30
2022-12-07T06:20:10.678Z,0.60
2022-12-07T06:22:37.006Z,0.30
2022-12-07T06:25:08.385Z,0.20
2022-12-07T06:27:36.374Z,0.43
2022-12-07T06:30:07.606Z,0.30
2022-12-07T06:32:35.211Z,0.40
2022-12-07T06:35:01.976Z,0.32
2022-12-07T06:37:28.386Z,0.30
2022-12-07T06:39:54.899Z,0.40
2022-12-07T06:42:21.322Z,0.30
2022-12-07T06:44:47.815Z,0.30
2022-12-07T06:47:40.689Z,0.30
2022-12-07T06:50:04.326Z,0.40
2022-12-07T06:52:33.922Z,0.40
2022-12-07T06:55:00.502Z,0.40
2022-12-07T06:57:27.486Z,0.38
2022-12-07T06:59:53.910Z,0.30
2022-12-07T07:02:20.578Z,0.30
2022-12-07T07:04:47.073Z,0.37
2022-12-07T07:07:13.481Z,0.45
2022-12-07T07:09:39.945Z,0.30
2022-12-07T07:12:07.939Z,0.40
2022-12-07T07:14:34.311Z,0.52
2022-12-07T07:17:00.730Z,0.50
2022-12-07T07:19:27.315Z,0.60
2022-12-07T07:21:53.760Z,0.45
2022-12-07T07:24:20.296Z,0.40
2022-12-07T07:26:46.748Z,0.47
2022-12-07T07:29:13.431Z,0.40
2022-12-07T07:31:41.963Z,1.10
2022-12-07T07:34:08.595Z,0.80
2022-12-07T07:36:35.133Z,0.80
2022-12-07T07:39:01.551Z,0.65
2022-12-07T07:41:28.127Z,0.80
2022-12-07T07:43:56.584Z,0.85
2022-12-07T07:46:23.151Z,1.02
2022-12-07T07:48:49.675Z,0.60
2022-12-07T07:51:16.260Z,0.80
2022-12-07T07:53:42.741Z,0.60
2022-12-07T07:56:11.432Z,0.70
2022-12-07T07:58:40.277Z,0.70
2022-12-07T08:01:10.673Z,0.50
2022-12-07T08:03:37.155Z,0.63
2022-12-07T08:06:07.076Z,0.73
2022-12-07T08:08:33.514Z,0.60
2022-12-07T08:11:02.966Z,0.80
2022-12-07T08:13:31.539Z,0.80
2022-12-07T08:15:59.072Z,1.05
2022-12-07T08:18:25.579Z,1.50
2022-12-07T08:20:51.982Z,1.17
2022-12-07T08:23:18.539Z,1.40
2022-12-07T08:25:45.057Z,1.13
2022-12-07T08:28:11.647Z,1.08
2022-12-07T08:30:38.293Z,1.40
2022-12-07T08:33:04.832Z,0.80
2022-12-07T08:35:34.277Z,0.82
2022-12-07T08:38:04.937Z,0.93
2022-12-07T08:40:31.738Z,0.55
2022-12-07T08:42:58.283Z,0.87
2022-12-07T08:45:27.301Z,0.95
2022-12-07T08:48:02.158Z,0.70
2022-12-07T08:50:28.889Z,0.80
2022-12-07T08:52:57.985Z,1.10
2022-12-07T08:55:24.630Z,0.83
2022-12-07T08:57:52.387Z,0.70
2022-12-07T09:00:19.090Z,0.80
2022-12-07T09:02:46.570Z,0.50
2022-12-07T09:05:16.900Z,0.73
2022-12-07T09:07:50.188Z,0.60
2022-12-07T09:10:16.709Z,0.50
2022-12-07T09:12:43.138Z,0.40
2022-12-07T09:15:09.767Z,0.52
2022-12-07T09:17:37.193Z,0.73
2022-12-07T09:20:07.676Z,0.40
2022-12-07T09:22:34.692Z,0.63
2022-12-07T09:25:01.821Z,0.70
2022-12-07T09:27:35.492Z,0.70
2022-12-07T09:30:02.367Z,0.70
2022-12-07T09:32:29.061Z,0.83
2022-12-07T09:34:56.145Z,0.65
2022-12-07T09:37:22.819Z,0.60
2022-12-07T09:39:50.488Z,0.63
2022-12-07T09:42:30.798Z,0.73
2022-12-07T09:45:00.723Z,0.67
2022-12-07T09:47:30.046Z,0.50
2022-12-07T09:50:06.931Z,0.60
2022-12-07T09:52:38.838Z,0.65
2022-12-07T09:55:12.116Z,0.50
2022-12-07T09:57:38.591Z,0.50
2022-12-07T10:00:17.546Z,0.70
2022-12-07T10:02:48.670Z,0.60
2022-12-07T10:05:30.275Z,0.30
2022-12-07T10:07:56.948Z,0.30
2022-12-07T10:10:42.148Z,0.47
2022-12-07T10:13:11.074Z,0.50
2022-12-07T10:15:49.903Z,0.30
2022-12-07T10:18:19.179Z,1.20
2022-12-07T10:20:49.259Z,0.40
2022-12-07T10:23:19.339Z,0.30
2022-12-07T10:25:46.168Z,0.63
2022-12-07T10:28:16.463Z,0.63
2022-12-07T10:31:05.233Z,0.65
2022-12-07T10:33:51.826Z,0.65
2022-12-07T10:36:22.711Z,0.60
2022-12-07T10:38:53.647Z,0.50
2022-12-07T10:41:21.113Z,0.50
2022-12-07T10:43:49.720Z,0.40
2022-12-07T10:46:19.437Z,0.47
2022-12-07T10:48:55.154Z,0.60
2022-12-07T10:51:40.522Z,0.40
2022-12-07T10:54:29.680Z,0.68
2022-12-07T10:56:59.191Z,0.50
2022-12-07T10:59:38.701Z,0.65
2022-12-07T11:02:38.207Z,0.40
2022-12-07T11:05:16.810Z,0.40
2022-12-07T11:07:46.571Z,0.40
2022-12-07T11:10:27.078Z,0.60
2022-12-07T11:13:22.545Z,0.47
2022-12-07T11:16:07.028Z,0.67
2022-12-07T11:19:06.993Z,0.40
2022-12-07T11:21:49.481Z,0.45
2022-12-07T11:24:23.286Z,0.60
2022-12-07T11:27:23.891Z,0.60
2022-12-07T11:30:03.423Z,0.70
2022-12-07T11:32:57.815Z,0.90
2022-12-07T11:35:36.772Z,0.60
2022-12-07T11:38:26.293Z,0.68
2022-12-07T11:41:13.663Z,0.50
2022-12-07T11:44:27.020Z,0.40
2022-12-07T11:47:31.346Z,0.40
2022-12-07T11:50:16.709Z,0.40
2022-12-07T11:52:53.495Z,0.50
2022-12-07T11:55:41.363Z,0.60
2022-12-07T11:58:45.670Z,0.50
2022-12-07T12:01:20.548Z,0.43
2022-12-07T12:04:03.460Z,0.40
2022-12-07T12:06:29.921Z,0.43
2022-12-07T12:15:21.603Z,0.40
2022-12-07T12:18:06.027Z,0.50
2022-12-07T12:21:03.844Z,0.30
2022-12-07T12:23:33.154Z,0.68
2022-12-07T12:26:03.560Z,0.57
2022-12-07T12:28:36.116Z,0.45
2022-12-07T12:31:15.243Z,0.80
2022-12-07T12:33:48.292Z,0.70
2022-12-07T12:36:19.788Z,0.60
2022-12-07T12:39:09.902Z,0.63
2022-12-07T12:41:36.367Z,0.52
2022-12-07T12:44:04.059Z,0.60
2022-12-07T12:46:30.483Z,0.55
2022-12-07T12:49:17.138Z,0.57
2022-12-07T12:51:45.449Z,0.40
2022-12-07T12:54:19.562Z,0.50
2022-12-07T12:56:59.570Z,0.50
2022-12-07T12:59:39.072Z,0.60
2022-12-07T13:02:29.474Z,0.73
2022-12-07T13:04:59.899Z,0.30
2022-12-07T13:07:48.331Z,0.38
2022-12-07T13:10:29.417Z,0.38
2022-12-07T13:13:20.704Z,0.30
2022-12-07T13:15:51.380Z,0.30
2022-12-07T13:18:37.185Z,0.30
2022-12-07T13:21:29.370Z,0.30
2022-12-07T13:24:01.055Z,0.40
2022-12-07T13:26:39.067Z,0.35
2022-12-07T13:29:14.936Z,0.30
2022-12-07T13:31:56.601Z,0.40
2022-12-07T13:34:36.488Z,0.28
2022-12-07T13:37:13.704Z,0.30
2022-12-07T13:39:52.709Z,0.20
2022-12-07T13:42:35.624Z,0.30
2022-12-07T13:45:22.763Z,0.50
2022-12-07T13:47:54.343Z,0.40
2022-12-07T13:50:29.591Z,0.30
2022-12-07T13:53:00.121Z,0.55
2022-12-07T13:55:27.846Z,0.77
2022-12-07T13:57:58.106Z,0.83
2022-12-07T14:00:30.858Z,0.60
2022-12-07T14:03:12.918Z,0.40
2022-12-07T14:05:44.420Z,0.40
2022-12-07T14:08:11.200Z,0.50
2022-12-07T14:10:39.618Z,0.40
2022-12-07T14:13:42.141Z,0.40
2022-12-07T14:16:26.659Z,0.68
2022-12-07T14:18:53.749Z,0.30
2022-12-07T14:21:24.314Z,0.60
2022-12-07T14:24:10.423Z,0.43
2022-12-07T14:26:38.775Z,0.70
2022-12-07T14:29:32.258Z,0.30
2022-12-07T14:32:01.778Z,0.50
2022-12-07T14:34:28.469Z,0.50
2022-12-07T14:36:54.952Z,0.67
2022-12-07T14:39:21.501Z,0.30
2022-12-07T14:42:00.299Z,0.40
2022-12-07T14:44:30.767Z,0.38
2022-12-07T14:49:51.713Z,0.70
2022-12-07T14:55:29.314Z,0.52
2022-12-07T14:57:55.982Z,0.63
2022-12-07T15:00:24.726Z,0.40
2022-12-07T15:02:52.098Z,0.40
2022-12-07T15:05:19.644Z,0.38
2022-12-07T15:07:47.601Z,0.60
2022-12-07T15:10:23.646Z,0.40
2022-12-07T15:12:51.071Z,0.47
2022-12-07T15:15:18.368Z,0.70
2022-12-07T15:17:44.970Z,0.50
2022-12-07T15:20:17.819Z,0.40
2022-12-07T15:22:44.318Z,0.50
2022-12-07T15:25:14.414Z,0.50
2022-12-07T15:27:40.868Z,0.70
2022-12-07T15:30:08.104Z,0.55
2022-12-07T15:32:34.879Z,0.30
2022-12-07T15:35:02.126Z,0.50
2022-12-07T15:37:28.954Z,0.47
2022-12-07T15:39:55.466Z,0.50
2022-12-07T15:42:21.950Z,0.43
2022-12-07T15:45:09.152Z,0.30
2022-12-07T15:48:10.361Z,0.50
2022-12-07T15:50:27.836Z,0.70
2022-12-07T15:52:54.251Z,0.40
2022-12-07T15:55:20.718Z,0.40
2022-12-07T15:57:47.224Z,0.60
2022-12-07T16:00:14.784Z,0.63
2022-12-07T16:02:41.206Z,0.60
2022-12-07T16:05:10.910Z,0.60
2022-12-07T16:07:40.284Z,0.63
2022-12-07T16:10:10.465Z,0.57
2022-12-07T16:12:36.981Z,0.70
2022-12-07T16:15:03.819Z,0.80
2022-12-07T16:17:30.650Z,0.60
2022-12-07T16:19:57.249Z,0.70
2022-12-07T16:22:24.335Z,0.65
2022-12-07T16:24:50.689Z,2.47
2022-12-07T16:27:17.223Z,2.60
2022-12-07T16:29:43.730Z,2.70
2022-12-07T16:32:12.806Z,2.47
2022-12-07T16:34:40.606Z,2.53
2022-12-07T16:37:07.063Z,2.13
2022-12-07T16:39:34.935Z,1.70
2022-12-07T16:42:01.495Z,1.83
2022-12-07T16:44:28.195Z,1.42
2022-12-07T16:46:54.786Z,1.80
2022-12-07T16:49:21.269Z,2.40
2022-12-07T16:52:18.107Z,2.60
2022-12-07T16:54:40.629Z,2.50
2022-12-07T16:57:07.129Z,2.30
2022-12-07T16:59:33.713Z,2.20
2022-12-07T17:02:03.110Z,2.30
2022-12-07T17:04:29.575Z,2.30
2022-12-07T17:06:57.820Z,3.40
2022-12-07T17:09:24.322Z,2.42
2022-12-07T17:11:52.183Z,2.47
2022-12-07T17:14:38.206Z,2.38
2022-12-07T17:17:05.364Z,2.13
2022-12-07T17:22:59.329Z,1.25
2022-12-07T17:26:10.567Z,1.35
2022-12-07T17:31:37.964Z,1.10
2022-12-07T17:34:05.190Z,0.80
2022-12-07T17:36:32.849Z,1.05
2022-12-07T17:38:59.417Z,0.98
2022-12-07T17:41:46.792Z,0.93
2022-12-07T17:44:16.514Z,1.60
2022-12-07T17:46:44.721Z,1.27
2022-12-07T17:49:11.658Z,1.48
2022-12-07T17:51:56.800Z,0.80
2022-12-07T17:54:23.901Z,0.70
2022-12-07T17:56:50.366Z,1.20
2022-12-07T17:59:17.161Z,0.90
2022-12-07T18:01:44.557Z,0.85
2022-12-07T18:04:11.396Z,0.70
2022-12-07T18:06:38.514Z,0.77
2022-12-07T18:09:05.590Z,1.00
2022-12-07T18:11:33.288Z,1.43
2022-12-07T18:14:00.120Z,0.80
2022-12-07T18:16:31.387Z,1.00
2022-12-07T18:19:08.691Z,0.70
2022-12-07T18:21:35.800Z,0.93
2022-12-07T18:24:04.363Z,0.90
2022-12-07T18:26:35.619Z,1.08
2022-12-07T18:29:02.234Z,1.30
2022-12-07T18:31:32.120Z,1.05
2022-12-07T18:34:08.899Z,0.88
2022-12-07T18:36:35.527Z,1.00
2022-12-07T18:39:05.413Z,1.35
2022-12-07T18:41:32.220Z,2.22
2022-12-07T18:43:58.680Z,1.45
2022-12-07T18:46:26.147Z,1.77
2022-12-07T18:48:57.314Z,1.20
2022-12-07T18:51:28.776Z,1.92
2022-12-07T18:54:00.400Z,1.33
2022-12-07T18:56:27.850Z,1.40
2022-12-07T18:59:15.541Z,1.70
2022-12-07T19:01:49.046Z,1.60
2022-12-07T19:04:16.507Z,1.30
2022-12-07T19:06:45.517Z,1.30
2022-12-07T19:09:15.244Z,1.70
2022-12-07T19:11:51.624Z,1.40
2022-12-07T19:14:34.321Z,1.70
2022-12-07T19:17:07.256Z,1.48
2022-12-07T19:19:47.429Z,1.42
2022-12-07T19:22:19.914Z,1.33
2022-12-07T19:24:49.935Z,1.30
2022-12-07T19:27:17.626Z,1.30
2022-12-07T19:29:46.619Z,1.42
2022-12-07T19:32:13.937Z,1.33
2022-12-07T19:34:42.820Z,1.40
2022-12-07T19:37:11.710Z,1.52
2022-12-07T19:39:39.696Z,1.40
2022-12-07T19:42:15.937Z,1.38
2022-12-07T19:44:48.273Z,1.58
2022-12-07T19:47:21.969Z,1.90
2022-12-07T19:49:48.540Z,1.42
2022-12-07T19:52:15.112Z,1.60
2022-12-07T19:54:41.674Z,1.50
2022-12-07T19:57:11.425Z,1.65
2022-12-07T19:59:37.988Z,1.25
2022-12-07T20:02:04.413Z,1.75
2022-12-07T20:04:32.664Z,1.40
2022-12-07T20:07:00.648Z,2.00
2022-12-07T20:09:27.851Z,1.42
2022-12-07T20:12:12.785Z,1.63
2022-12-07T20:14:39.334Z,1.63
2022-12-07T20:17:06.727Z,1.70
2022-12-07T20:19:36.564Z,1.92
2022-12-07T20:22:08.859Z,1.73
2022-12-07T20:24:36.279Z,1.70
2022-12-07T20:27:04.293Z,1.65
2022-12-07T20:29:31.417Z,1.60
2022-12-07T20:31:58.254Z,1.70
2022-12-07T20:34:26.570Z,1.30
2022-12-07T20:36:54.937Z,1.80
2022-12-07T20:39:23.579Z,1.60
2022-12-07T20:42:09.454Z,1.63
2022-12-07T20:44:36.121Z,1.90
2022-12-07T20:47:04.428Z,1.80
2022-12-07T20:49:30.949Z,1.80
2022-12-07T20:52:00.839Z,1.77
2022-12-07T20:54:27.432Z,1.70
2022-12-07T20:56:54.013Z,1.80
2022-12-07T20:59:21.470Z,1.70
2022-12-07T21:01:48.537Z,1.98
2022-12-07T21:04:15.386Z,1.90
2022-12-07T21:06:42.235Z,1.83
2022-12-07T21:09:10.447Z,2.08
2022-12-07T21:11:37.753Z,1.92
2022-12-07T21:14:04.296Z,1.73
2022-12-07T21:16:32.653Z,1.77
2022-12-07T21:19:02.810Z,1.67
2022-12-07T21:21:31.152Z,1.80
2022-12-07T21:24:03.456Z,1.60
2022-12-07T21:26:35.513Z,1.50
2022-12-07T21:29:04.592Z,1.55
2022-12-07T21:31:31.499Z,1.60
2022-12-07T21:34:02.279Z,1.90
2022-12-07T21:36:28.790Z,1.55
2022-12-07T21:38:55.422Z,1.48
2022-12-07T21:41:23.185Z,1.48
2022-12-07T21:43:50.559Z,1.57
2022-12-07T21:46:18.324Z,1.42
2022-12-07T21:48:53.134Z,1.80
2022-12-07T21:51:21.178Z,1.60
2022-12-07T21:53:49.381Z,1.60
2022-12-07T21:56:21.186Z,1.60
2022-12-07T21:58:49.213Z,1.65
2022-12-07T22:01:24.210Z,1.35
2022-12-07T22:03:51.546Z,1.35
2022-12-07T22:06:20.919Z,1.02
2022-12-07T22:08:47.521Z,1.40
2022-12-07T22:11:15.502Z,1.38
2022-12-07T22:14:06.735Z,1.50
2022-12-07T22:16:36.693Z,1.10
2022-12-07T22:19:03.667Z,1.70
2022-12-07T22:21:31.470Z,1.20
2022-12-07T22:23:57.920Z,1.30
2022-12-07T22:26:24.909Z,1.80
2022-12-07T22:28:51.770Z,1.40
2022-12-07T22:31:19.801Z,1.23
2022-12-07T22:33:46.633Z,1.60
2022-12-07T22:36:15.674Z,1.10
2022-12-07T22:38:43.315Z,1.27
2022-12-07T22:41:12.432Z,1.10
2022-12-07T22:43:39.322Z,1.23
2022-12-07T22:46:07.760Z,1.07
2022-12-07T22:48:34.368Z,1.20
2022-12-07T22:51:01.526Z,1.30
2022-12-07T22:53:28.414Z,1.00
2022-12-07T22:55:55.195Z,0.95
2022-12-07T22:58:21.876Z,1.23
2022-12-07T23:00:48.486Z,1.17
2022-12-07T23:03:15.234Z,1.20
2022-12-07T23:05:46.222Z,1.08
2022-12-07T23:08:13.532Z,1.27
2022-12-07T23:10:45.961Z,0.97
2022-12-07T23:13:32.304Z,1.17
2022-12-07T23:16:13.333Z,0.93
2022-12-07T23:18:41.638Z,1.00
2022-12-07T23:21:09.114Z,1.08
2022-12-07T23:23:35.745Z,1.03
2022-12-07T23:26:04.233Z,0.95
2022-12-07T23:28:31.145Z,0.82
2022-12-07T23:31:08.582Z,1.02
2022-12-07T23:33:35.340Z,1.05
2022-12-07T23:36:15.372Z,1.03
2022-12-07T23:38:46.422Z,1.05
2022-12-07T23:41:15.373Z,0.90
2022-12-07T23:43:42.345Z,1.02
2022-12-07T23:46:10.890Z,1.00
2022-12-07T23:48:38.471Z,0.90
2022-12-07T23:51:06.120Z,1.35
2022-12-07T23:53:34.118Z,1.00
2022-12-07T23:56:00.894Z,0.90
2022-12-07T23:58:27.468Z,1.02
